sensor_id;sensor_type;location;lat;lon;timestamp;P1;durP1;ratioP1;P2;durP2;ratioP2
73980;SDS011;62348;51.412;5.436;2023-04-24T00:00:05;16.35;;;11.77;;
73980;SDS011;62348;51.412;5.436;2023-04-24T00:02:31;17.85;;;11.38;;
73980;SDS011;62348;51.412;5.436;2023-04-24T00:04:57;18.17;;;11.85;;
73980;SDS011;62348;51.412;5.436;2023-04-24T00:07:27;19.10;;;11.65;;
73980;SDS011;62348;51.412;5.436;2023-04-24T00:09:56;15.25;;;11.82;;
73980;SDS011;62348;51.412;5.436;2023-04-24T00:12:21;17.50;;;12.32;;
73980;SDS011;62348;51.412;5.436;2023-04-24T00:14:46;13.40;;;11.95;;
73980;SDS011;62348;51.412;5.436;2023-04-24T00:17:12;15.63;;;11.25;;
73980;SDS011;62348;51.412;5.436;2023-04-24T00:19:38;20.48;;;11.93;;
73980;SDS011;62348;51.412;5.436;2023-04-24T00:22:03;17.23;;;11.40;;
73980;SDS011;62348;51.412;5.436;2023-04-24T00:24:29;20.15;;;12.60;;
73980;SDS011;62348;51.412;5.436;2023-04-24T00:26:54;20.27;;;12.02;;
73980;SDS011;62348;51.412;5.436;2023-04-24T00:29:20;20.05;;;11.93;;
73980;SDS011;62348;51.412;5.436;2023-04-24T00:31:45;14.10;;;10.93;;
73980;SDS011;62348;51.412;5.436;2023-04-24T00:34:11;15.93;;;11.98;;
73980;SDS011;62348;51.412;5.436;2023-04-24T00:36:37;15.07;;;10.98;;
73980;SDS011;62348;51.412;5.436;2023-04-24T00:39:03;18.52;;;11.90;;
73980;SDS011;62348;51.412;5.436;2023-04-24T00:41:28;19.55;;;11.25;;
73980;SDS011;62348;51.412;5.436;2023-04-24T00:43:54;19.55;;;12.13;;
73980;SDS011;62348;51.412;5.436;2023-04-24T00:46:20;17.30;;;11.88;;
73980;SDS011;62348;51.412;5.436;2023-04-24T00:48:46;16.38;;;12.68;;
73980;SDS011;62348;51.412;5.436;2023-04-24T00:51:11;16.90;;;13.27;;
73980;SDS011;62348;51.412;5.436;2023-04-24T00:53:37;25.83;;;12.35;;
73980;SDS011;62348;51.412;5.436;2023-04-24T00:56:03;21.25;;;13.52;;
73980;SDS011;62348;51.412;5.436;2023-04-24T00:58:30;17.85;;;12.95;;
73980;SDS011;62348;51.412;5.436;2023-04-24T01:00:56;20.98;;;13.80;;
73980;SDS011;62348;51.412;5.436;2023-04-24T01:03:24;18.95;;;12.80;;
73980;SDS011;62348;51.412;5.436;2023-04-24T01:05:51;18.98;;;13.73;;
73980;SDS011;62348;51.412;5.436;2023-04-24T01:08:19;23.65;;;14.30;;
73980;SDS011;62348;51.412;5.436;2023-04-24T01:10:48;21.38;;;14.15;;
73980;SDS011;62348;51.412;5.436;2023-04-24T01:13:16;23.48;;;15.20;;
73980;SDS011;62348;51.412;5.436;2023-04-24T01:15:42;24.60;;;14.55;;
73980;SDS011;62348;51.412;5.436;2023-04-24T01:18:08;22.45;;;14.95;;
73980;SDS011;62348;51.412;5.436;2023-04-24T01:20:33;22.77;;;14.80;;
73980;SDS011;62348;51.412;5.436;2023-04-24T01:22:59;22.20;;;15.07;;
73980;SDS011;62348;51.412;5.436;2023-04-24T01:25:25;22.65;;;14.90;;
73980;SDS011;62348;51.412;5.436;2023-04-24T01:27:52;23.70;;;16.27;;
73980;SDS011;62348;51.412;5.436;2023-04-24T01:30:17;25.25;;;15.65;;
73980;SDS011;62348;51.412;5.436;2023-04-24T01:32:43;23.92;;;15.43;;
73980;SDS011;62348;51.412;5.436;2023-04-24T01:35:10;22.55;;;15.30;;
73980;SDS011;62348;51.412;5.436;2023-04-24T01:37:35;24.13;;;15.93;;
73980;SDS011;62348;51.412;5.436;2023-04-24T01:40:07;21.92;;;16.10;;
73980;SDS011;62348;51.412;5.436;2023-04-24T01:42:34;25.08;;;16.27;;
73980;SDS011;62348;51.412;5.436;2023-04-24T01:45:00;23.50;;;16.48;;
73980;SDS011;62348;51.412;5.436;2023-04-24T01:47:28;24.05;;;17.98;;
73980;SDS011;62348;51.412;5.436;2023-04-24T01:49:55;29.65;;;19.17;;
73980;SDS011;62348;51.412;5.436;2023-04-24T01:52:20;22.17;;;16.92;;
73980;SDS011;62348;51.412;5.436;2023-04-24T01:54:46;27.63;;;17.83;;
73980;SDS011;62348;51.412;5.436;2023-04-24T01:57:12;30.20;;;18.67;;
73980;SDS011;62348;51.412;5.436;2023-04-24T01:59:39;25.27;;;18.90;;
73980;SDS011;62348;51.412;5.436;2023-04-24T02:02:04;28.63;;;18.23;;
73980;SDS011;62348;51.412;5.436;2023-04-24T02:04:30;29.50;;;19.08;;
73980;SDS011;62348;51.412;5.436;2023-04-24T02:06:55;25.90;;;17.65;;
73980;SDS011;62348;51.412;5.436;2023-04-24T02:09:20;26.20;;;18.70;;
73980;SDS011;62348;51.412;5.436;2023-04-24T02:11:46;30.25;;;19.38;;
73980;SDS011;62348;51.412;5.436;2023-04-24T02:14:11;27.00;;;18.27;;
73980;SDS011;62348;51.412;5.436;2023-04-24T02:16:37;25.65;;;18.00;;
73980;SDS011;62348;51.412;5.436;2023-04-24T02:19:03;24.88;;;17.85;;
73980;SDS011;62348;51.412;5.436;2023-04-24T02:21:28;25.38;;;18.17;;
73980;SDS011;62348;51.412;5.436;2023-04-24T02:23:55;27.10;;;17.52;;
73980;SDS011;62348;51.412;5.436;2023-04-24T02:26:21;24.02;;;17.60;;
73980;SDS011;62348;51.412;5.436;2023-04-24T02:28:46;26.58;;;16.98;;
73980;SDS011;62348;51.412;5.436;2023-04-24T02:31:11;28.35;;;16.48;;
73980;SDS011;62348;51.412;5.436;2023-04-24T02:33:37;22.30;;;17.05;;
73980;SDS011;62348;51.412;5.436;2023-04-24T02:36:02;28.15;;;17.60;;
73980;SDS011;62348;51.412;5.436;2023-04-24T02:38:28;22.58;;;16.38;;
73980;SDS011;62348;51.412;5.436;2023-04-24T02:40:54;29.30;;;17.88;;
73980;SDS011;62348;51.412;5.436;2023-04-24T02:43:19;23.98;;;16.15;;
73980;SDS011;62348;51.412;5.436;2023-04-24T02:45:45;23.75;;;17.08;;
73980;SDS011;62348;51.412;5.436;2023-04-24T02:48:10;25.08;;;16.10;;
73980;SDS011;62348;51.412;5.436;2023-04-24T02:50:36;25.73;;;16.98;;
73980;SDS011;62348;51.412;5.436;2023-04-24T02:53:01;23.42;;;16.67;;
73980;SDS011;62348;51.412;5.436;2023-04-24T02:55:27;21.23;;;15.98;;
73980;SDS011;62348;51.412;5.436;2023-04-24T02:57:52;20.38;;;15.30;;
73980;SDS011;62348;51.412;5.436;2023-04-24T03:00:18;22.05;;;15.50;;
73980;SDS011;62348;51.412;5.436;2023-04-24T03:02:43;24.63;;;16.05;;
73980;SDS011;62348;51.412;5.436;2023-04-24T03:05:09;26.48;;;15.10;;
73980;SDS011;62348;51.412;5.436;2023-04-24T03:07:36;28.35;;;15.35;;
73980;SDS011;62348;51.412;5.436;2023-04-24T03:10:02;18.50;;;13.82;;
73980;SDS011;62348;51.412;5.436;2023-04-24T03:12:28;24.02;;;15.93;;
73980;SDS011;62348;51.412;5.436;2023-04-24T03:14:53;21.10;;;14.57;;
73980;SDS011;62348;51.412;5.436;2023-04-24T03:17:18;21.77;;;14.75;;
73980;SDS011;62348;51.412;5.436;2023-04-24T03:19:44;22.27;;;13.82;;
73980;SDS011;62348;51.412;5.436;2023-04-24T03:22:09;19.90;;;13.57;;
73980;SDS011;62348;51.412;5.436;2023-04-24T03:24:36;18.63;;;13.98;;
73980;SDS011;62348;51.412;5.436;2023-04-24T03:27:01;21.73;;;14.18;;
73980;SDS011;62348;51.412;5.436;2023-04-24T03:29:27;23.38;;;14.85;;
73980;SDS011;62348;51.412;5.436;2023-04-24T03:31:52;20.02;;;13.23;;
73980;SDS011;62348;51.412;5.436;2023-04-24T03:34:17;18.48;;;13.57;;
73980;SDS011;62348;51.412;5.436;2023-04-24T03:36:43;17.30;;;13.10;;
73980;SDS011;62348;51.412;5.436;2023-04-24T03:39:08;20.05;;;13.20;;
73980;SDS011;62348;51.412;5.436;2023-04-24T03:41:34;17.95;;;13.50;;
73980;SDS011;62348;51.412;5.436;2023-04-24T03:43:59;20.58;;;12.60;;
73980;SDS011;62348;51.412;5.436;2023-04-24T03:46:25;21.08;;;13.60;;
73980;SDS011;62348;51.412;5.436;2023-04-24T03:48:50;19.30;;;13.68;;
73980;SDS011;62348;51.412;5.436;2023-04-24T03:51:16;20.83;;;13.93;;
73980;SDS011;62348;51.412;5.436;2023-04-24T03:53:41;21.63;;;14.75;;
73980;SDS011;62348;51.412;5.436;2023-04-24T03:56:06;21.02;;;12.68;;
73980;SDS011;62348;51.412;5.436;2023-04-24T03:58:32;17.75;;;12.57;;
73980;SDS011;62348;51.412;5.436;2023-04-24T04:00:57;18.17;;;12.93;;
73980;SDS011;62348;51.412;5.436;2023-04-24T04:03:23;14.27;;;11.80;;
73980;SDS011;62348;51.412;5.436;2023-04-24T04:05:50;17.00;;;12.20;;
73980;SDS011;62348;51.412;5.436;2023-04-24T04:08:15;17.50;;;12.38;;
73980;SDS011;62348;51.412;5.436;2023-04-24T04:10:41;17.58;;;11.13;;
73980;SDS011;62348;51.412;5.436;2023-04-24T04:13:06;15.40;;;11.18;;
73980;SDS011;62348;51.412;5.436;2023-04-24T04:15:32;16.25;;;11.80;;
73980;SDS011;62348;51.412;5.436;2023-04-24T04:17:57;15.00;;;10.93;;
73980;SDS011;62348;51.412;5.436;2023-04-24T04:20:22;14.40;;;10.65;;
73980;SDS011;62348;51.412;5.436;2023-04-24T04:22:48;11.75;;;9.88;;
73980;SDS011;62348;51.412;5.436;2023-04-24T04:25:13;14.18;;;10.38;;
73980;SDS011;62348;51.412;5.436;2023-04-24T04:27:39;12.90;;;10.20;;
73980;SDS011;62348;51.412;5.436;2023-04-24T04:30:06;11.90;;;9.88;;
73980;SDS011;62348;51.412;5.436;2023-04-24T04:32:33;13.65;;;9.77;;
73980;SDS011;62348;51.412;5.436;2023-04-24T04:34:59;12.15;;;9.52;;
73980;SDS011;62348;51.412;5.436;2023-04-24T04:37:32;12.70;;;9.52;;
73980;SDS011;62348;51.412;5.436;2023-04-24T04:40:00;13.25;;;9.35;;
73980;SDS011;62348;51.412;5.436;2023-04-24T04:42:31;13.43;;;9.38;;
73980;SDS011;62348;51.412;5.436;2023-04-24T04:44:59;10.52;;;8.85;;
73980;SDS011;62348;51.412;5.436;2023-04-24T04:47:28;12.63;;;9.50;;
73980;SDS011;62348;51.412;5.436;2023-04-24T04:49:56;14.65;;;9.30;;
73980;SDS011;62348;51.412;5.436;2023-04-24T04:52:22;11.70;;;8.98;;
73980;SDS011;62348;51.412;5.436;2023-04-24T04:54:50;13.68;;;9.38;;
73980;SDS011;62348;51.412;5.436;2023-04-24T04:57:15;11.70;;;9.00;;
73980;SDS011;62348;51.412;5.436;2023-04-24T04:59:40;10.10;;;8.85;;
73980;SDS011;62348;51.412;5.436;2023-04-24T05:02:06;11.02;;;7.95;;
73980;SDS011;62348;51.412;5.436;2023-04-24T05:04:31;9.30;;;7.93;;
73980;SDS011;62348;51.412;5.436;2023-04-24T05:06:57;11.10;;;8.27;;
73980;SDS011;62348;51.412;5.436;2023-04-24T05:09:22;10.80;;;8.55;;
73980;SDS011;62348;51.412;5.436;2023-04-24T05:11:48;10.30;;;8.02;;
73980;SDS011;62348;51.412;5.436;2023-04-24T05:14:13;7.50;;;6.63;;
73980;SDS011;62348;51.412;5.436;2023-04-24T05:16:39;7.63;;;6.28;;
73980;SDS011;62348;51.412;5.436;2023-04-24T05:19:05;8.50;;;5.55;;
73980;SDS011;62348;51.412;5.436;2023-04-24T05:21:31;5.55;;;4.57;;
73980;SDS011;62348;51.412;5.436;2023-04-24T05:23:57;6.45;;;4.10;;
73980;SDS011;62348;51.412;5.436;2023-04-24T05:26:22;3.92;;;3.25;;
73980;SDS011;62348;51.412;5.436;2023-04-24T05:28:48;8.05;;;2.83;;
73980;SDS011;62348;51.412;5.436;2023-04-24T05:31:13;4.43;;;3.13;;
73980;SDS011;62348;51.412;5.436;2023-04-24T05:33:39;3.38;;;2.30;;
73980;SDS011;62348;51.412;5.436;2023-04-24T05:36:05;4.75;;;2.60;;
73980;SDS011;62348;51.412;5.436;2023-04-24T05:38:31;4.80;;;2.60;;
73980;SDS011;62348;51.412;5.436;2023-04-24T05:40:57;2.67;;;2.05;;
73980;SDS011;62348;51.412;5.436;2023-04-24T05:43:22;3.03;;;2.55;;
73980;SDS011;62348;51.412;5.436;2023-04-24T05:45:48;4.15;;;2.20;;
73980;SDS011;62348;51.412;5.436;2023-04-24T05:48:13;2.92;;;2.20;;
73980;SDS011;62348;51.412;5.436;2023-04-24T05:50:38;2.75;;;2.00;;
73980;SDS011;62348;51.412;5.436;2023-04-24T05:53:04;3.03;;;2.20;;
73980;SDS011;62348;51.412;5.436;2023-04-24T05:55:31;2.53;;;2.10;;
73980;SDS011;62348;51.412;5.436;2023-04-24T05:57:57;4.47;;;2.10;;
73980;SDS011;62348;51.412;5.436;2023-04-24T06:00:23;4.25;;;2.65;;
73980;SDS011;62348;51.412;5.436;2023-04-24T06:02:49;4.30;;;2.50;;
73980;SDS011;62348;51.412;5.436;2023-04-24T06:05:14;3.22;;;2.50;;
73980;SDS011;62348;51.412;5.436;2023-04-24T06:07:40;4.03;;;2.85;;
73980;SDS011;62348;51.412;5.436;2023-04-24T06:10:05;3.30;;;2.38;;
73980;SDS011;62348;51.412;5.436;2023-04-24T06:12:31;6.28;;;3.25;;
73980;SDS011;62348;51.412;5.436;2023-04-24T06:14:57;4.53;;;2.90;;
73980;SDS011;62348;51.412;5.436;2023-04-24T06:17:22;5.00;;;3.05;;
73980;SDS011;62348;51.412;5.436;2023-04-24T06:19:48;4.50;;;3.40;;
73980;SDS011;62348;51.412;5.436;2023-04-24T06:22:13;5.40;;;3.88;;
73980;SDS011;62348;51.412;5.436;2023-04-24T06:24:41;4.82;;;4.35;;
73980;SDS011;62348;51.412;5.436;2023-04-24T06:27:07;6.13;;;4.47;;
73980;SDS011;62348;51.412;5.436;2023-04-24T06:29:33;5.38;;;4.70;;
73980;SDS011;62348;51.412;5.436;2023-04-24T06:31:58;7.78;;;4.97;;
73980;SDS011;62348;51.412;5.436;2023-04-24T06:34:24;6.85;;;5.10;;
73980;SDS011;62348;51.412;5.436;2023-04-24T06:36:50;10.18;;;6.55;;
73980;SDS011;62348;51.412;5.436;2023-04-24T06:39:15;11.55;;;6.85;;
73980;SDS011;62348;51.412;5.436;2023-04-24T06:41:41;9.95;;;6.68;;
73980;SDS011;62348;51.412;5.436;2023-04-24T06:44:06;11.50;;;8.10;;
73980;SDS011;62348;51.412;5.436;2023-04-24T06:46:32;12.98;;;8.70;;
73980;SDS011;62348;51.412;5.436;2023-04-24T06:48:57;12.85;;;8.95;;
73980;SDS011;62348;51.412;5.436;2023-04-24T06:51:23;15.02;;;10.45;;
73980;SDS011;62348;51.412;5.436;2023-04-24T06:53:49;14.40;;;9.38;;
73980;SDS011;62348;51.412;5.436;2023-04-24T06:56:16;17.77;;;10.60;;
73980;SDS011;62348;51.412;5.436;2023-04-24T06:58:41;16.38;;;10.77;;
73980;SDS011;62348;51.412;5.436;2023-04-24T07:01:07;16.15;;;10.32;;
73980;SDS011;62348;51.412;5.436;2023-04-24T07:03:32;15.00;;;10.27;;
73980;SDS011;62348;51.412;5.436;2023-04-24T07:05:58;16.60;;;10.73;;
73980;SDS011;62348;51.412;5.436;2023-04-24T07:08:23;13.43;;;10.48;;
73980;SDS011;62348;51.412;5.436;2023-04-24T07:10:49;18.67;;;11.68;;
73980;SDS011;62348;51.412;5.436;2023-04-24T07:13:16;17.08;;;11.63;;
73980;SDS011;62348;51.412;5.436;2023-04-24T07:15:42;17.92;;;11.85;;
73980;SDS011;62348;51.412;5.436;2023-04-24T07:18:07;17.23;;;11.98;;
73980;SDS011;62348;51.412;5.436;2023-04-24T07:20:33;18.92;;;11.73;;
73980;SDS011;62348;51.412;5.436;2023-04-24T07:22:59;17.92;;;13.18;;
73980;SDS011;62348;51.412;5.436;2023-04-24T07:25:24;15.73;;;12.10;;
73980;SDS011;62348;51.412;5.436;2023-04-24T07:27:50;22.40;;;12.70;;
73980;SDS011;62348;51.412;5.436;2023-04-24T07:30:15;17.75;;;11.60;;
73980;SDS011;62348;51.412;5.436;2023-04-24T07:32:41;15.70;;;11.23;;
73980;SDS011;62348;51.412;5.436;2023-04-24T07:35:06;12.60;;;9.57;;
73980;SDS011;62348;51.412;5.436;2023-04-24T07:37:32;14.15;;;9.02;;
73980;SDS011;62348;51.412;5.436;2023-04-24T07:39:57;15.20;;;8.93;;
73980;SDS011;62348;51.412;5.436;2023-04-24T07:42:23;13.63;;;8.60;;
73980;SDS011;62348;51.412;5.436;2023-04-24T07:44:48;13.57;;;7.80;;
73980;SDS011;62348;51.412;5.436;2023-04-24T07:47:14;16.05;;;7.18;;
73980;SDS011;62348;51.412;5.436;2023-04-24T07:49:43;14.98;;;7.00;;
73980;SDS011;62348;51.412;5.436;2023-04-24T07:52:09;19.33;;;7.60;;
73980;SDS011;62348;51.412;5.436;2023-04-24T07:54:34;12.60;;;6.90;;
73980;SDS011;62348;51.412;5.436;2023-04-24T07:56:59;16.60;;;7.63;;
73980;SDS011;62348;51.412;5.436;2023-04-24T07:59:25;17.95;;;7.65;;
73980;SDS011;62348;51.412;5.436;2023-04-24T08:01:51;14.48;;;8.13;;
73980;SDS011;62348;51.412;5.436;2023-04-24T08:04:16;18.00;;;8.65;;
73980;SDS011;62348;51.412;5.436;2023-04-24T08:06:43;19.25;;;9.00;;
73980;SDS011;62348;51.412;5.436;2023-04-24T08:09:08;22.15;;;9.02;;
73980;SDS011;62348;51.412;5.436;2023-04-24T08:11:34;18.10;;;9.05;;
73980;SDS011;62348;51.412;5.436;2023-04-24T08:13:59;20.40;;;9.95;;
73980;SDS011;62348;51.412;5.436;2023-04-24T08:16:25;20.92;;;9.15;;
73980;SDS011;62348;51.412;5.436;2023-04-24T08:18:51;15.90;;;9.95;;
73980;SDS011;62348;51.412;5.436;2023-04-24T08:21:16;18.38;;;8.95;;
73980;SDS011;62348;51.412;5.436;2023-04-24T08:23:43;24.02;;;10.13;;
73980;SDS011;62348;51.412;5.436;2023-04-24T08:26:09;20.15;;;8.30;;
73980;SDS011;62348;51.412;5.436;2023-04-24T08:28:36;15.30;;;8.63;;
73980;SDS011;62348;51.412;5.436;2023-04-24T08:31:01;18.75;;;8.38;;
73980;SDS011;62348;51.412;5.436;2023-04-24T08:33:27;22.13;;;7.72;;
73980;SDS011;62348;51.412;5.436;2023-04-24T08:35:57;15.13;;;7.60;;
73980;SDS011;62348;51.412;5.436;2023-04-24T08:38:23;22.20;;;8.90;;
73980;SDS011;62348;51.412;5.436;2023-04-24T08:40:48;15.35;;;7.35;;
73980;SDS011;62348;51.412;5.436;2023-04-24T08:43:14;13.90;;;6.13;;
73980;SDS011;62348;51.412;5.436;2023-04-24T08:45:41;17.77;;;7.03;;
73980;SDS011;62348;51.412;5.436;2023-04-24T08:48:07;14.25;;;6.20;;
73980;SDS011;62348;51.412;5.436;2023-04-24T08:50:34;21.98;;;7.15;;
73980;SDS011;62348;51.412;5.436;2023-04-24T08:53:00;14.10;;;6.57;;
73980;SDS011;62348;51.412;5.436;2023-04-24T08:55:26;20.48;;;7.45;;
73980;SDS011;62348;51.412;5.436;2023-04-24T08:57:52;17.13;;;7.32;;
73980;SDS011;62348;51.412;5.436;2023-04-24T09:00:19;14.38;;;5.45;;
73980;SDS011;62348;51.412;5.436;2023-04-24T09:02:47;19.77;;;5.47;;
73980;SDS011;62348;51.412;5.436;2023-04-24T09:05:14;14.18;;;4.90;;
73980;SDS011;62348;51.412;5.436;2023-04-24T09:07:43;11.75;;;4.53;;
73980;SDS011;62348;51.412;5.436;2023-04-24T09:10:11;11.55;;;4.35;;
73980;SDS011;62348;51.412;5.436;2023-04-24T09:12:37;8.80;;;3.58;;
73980;SDS011;62348;51.412;5.436;2023-04-24T09:15:03;12.43;;;4.65;;
73980;SDS011;62348;51.412;5.436;2023-04-24T09:17:30;11.25;;;3.92;;
73980;SDS011;62348;51.412;5.436;2023-04-24T09:19:55;13.77;;;3.92;;
73980;SDS011;62348;51.412;5.436;2023-04-24T09:22:21;10.50;;;3.70;;
73980;SDS011;62348;51.412;5.436;2023-04-24T09:24:46;13.75;;;4.53;;
73980;SDS011;62348;51.412;5.436;2023-04-24T09:27:12;11.93;;;3.92;;
73980;SDS011;62348;51.412;5.436;2023-04-24T09:29:44;14.48;;;4.43;;
73980;SDS011;62348;51.412;5.436;2023-04-24T09:32:20;14.98;;;4.47;;
73980;SDS011;62348;51.412;5.436;2023-04-24T09:34:47;12.70;;;4.13;;
73980;SDS011;62348;51.412;5.436;2023-04-24T09:37:28;12.98;;;4.68;;
73980;SDS011;62348;51.412;5.436;2023-04-24T09:42:54;15.63;;;4.90;;
73980;SDS011;62348;51.412;5.436;2023-04-24T09:45:35;14.00;;;4.50;;
73980;SDS011;62348;51.412;5.436;2023-04-24T09:48:02;13.98;;;4.78;;
73980;SDS011;62348;51.412;5.436;2023-04-24T09:50:29;15.15;;;4.32;;
73980;SDS011;62348;51.412;5.436;2023-04-24T09:53:01;13.80;;;4.13;;
73980;SDS011;62348;51.412;5.436;2023-04-24T09:55:28;15.65;;;4.43;;
73980;SDS011;62348;51.412;5.436;2023-04-24T10:00:28;12.70;;;3.35;;
73980;SDS011;62348;51.412;5.436;2023-04-24T10:02:58;12.70;;;3.35;;
73980;SDS011;62348;51.412;5.436;2023-04-24T10:05:35;11.57;;;4.03;;
73980;SDS011;62348;51.412;5.436;2023-04-24T10:10:31;11.27;;;3.13;;
73980;SDS011;62348;51.412;5.436;2023-04-24T10:12:58;8.63;;;3.53;;
73980;SDS011;62348;51.412;5.436;2023-04-24T10:15:24;10.73;;;2.85;;
73980;SDS011;62348;51.412;5.436;2023-04-24T10:17:51;9.10;;;3.42;;
73980;SDS011;62348;51.412;5.436;2023-04-24T10:20:24;6.70;;;2.85;;
73980;SDS011;62348;51.412;5.436;2023-04-24T10:22:52;8.95;;;2.92;;
73980;SDS011;62348;51.412;5.436;2023-04-24T10:25:24;9.00;;;2.60;;
73980;SDS011;62348;51.412;5.436;2023-04-24T10:27:51;14.20;;;3.65;;
73980;SDS011;62348;51.412;5.436;2023-04-24T10:30:17;10.35;;;3.20;;
73980;SDS011;62348;51.412;5.436;2023-04-24T10:32:44;8.90;;;2.97;;
73980;SDS011;62348;51.412;5.436;2023-04-24T10:35:10;10.82;;;3.50;;
73980;SDS011;62348;51.412;5.436;2023-04-24T10:37:39;6.78;;;2.42;;
73980;SDS011;62348;51.412;5.436;2023-04-24T10:40:07;8.35;;;3.00;;
73980;SDS011;62348;51.412;5.436;2023-04-24T10:42:35;9.18;;;2.83;;
73980;SDS011;62348;51.412;5.436;2023-04-24T10:45:05;6.05;;;2.08;;
73980;SDS011;62348;51.412;5.436;2023-04-24T10:47:40;7.72;;;2.47;;
73980;SDS011;62348;51.412;5.436;2023-04-24T10:50:09;5.43;;;2.20;;
73980;SDS011;62348;51.412;5.436;2023-04-24T10:52:48;7.72;;;2.58;;
73980;SDS011;62348;51.412;5.436;2023-04-24T10:58:07;4.70;;;1.67;;
73980;SDS011;62348;51.412;5.436;2023-04-24T11:00:32;5.22;;;2.03;;
73980;SDS011;62348;51.412;5.436;2023-04-24T11:03:03;5.75;;;1.70;;
73980;SDS011;62348;51.412;5.436;2023-04-24T11:08:29;5.30;;;1.63;;
73980;SDS011;62348;51.412;5.436;2023-04-24T11:10:56;8.38;;;1.52;;
73980;SDS011;62348;51.412;5.436;2023-04-24T11:13:23;3.28;;;1.23;;
73980;SDS011;62348;51.412;5.436;2023-04-24T11:18:38;7.43;;;1.38;;
73980;SDS011;62348;51.412;5.436;2023-04-24T11:21:12;5.07;;;1.35;;
73980;SDS011;62348;51.412;5.436;2023-04-24T11:23:38;5.45;;;1.58;;
73980;SDS011;62348;51.412;5.436;2023-04-24T11:26:37;3.88;;;1.30;;
73980;SDS011;62348;51.412;5.436;2023-04-24T11:29:08;3.78;;;1.88;;
73980;SDS011;62348;51.412;5.436;2023-04-24T11:34:06;4.93;;;1.52;;
73980;SDS011;62348;51.412;5.436;2023-04-24T11:36:37;4.28;;;1.30;;
73980;SDS011;62348;51.412;5.436;2023-04-24T11:39:03;4.50;;;1.15;;
73980;SDS011;62348;51.412;5.436;2023-04-24T11:41:29;3.35;;;1.17;;
73980;SDS011;62348;51.412;5.436;2023-04-24T11:43:55;1.90;;;1.33;;
73980;SDS011;62348;51.412;5.436;2023-04-24T11:46:21;6.80;;;1.55;;
73980;SDS011;62348;51.412;5.436;2023-04-24T11:48:47;7.43;;;1.20;;
73980;SDS011;62348;51.412;5.436;2023-04-24T11:51:13;2.20;;;1.00;;
73980;SDS011;62348;51.412;5.436;2023-04-24T11:53:39;6.93;;;1.40;;
73980;SDS011;62348;51.412;5.436;2023-04-24T11:56:04;6.20;;;1.20;;
73980;SDS011;62348;51.412;5.436;2023-04-24T11:58:37;2.92;;;1.02;;
73980;SDS011;62348;51.412;5.436;2023-04-24T12:01:04;4.50;;;1.40;;
73980;SDS011;62348;51.412;5.436;2023-04-24T12:03:30;5.82;;;1.10;;
73980;SDS011;62348;51.412;5.436;2023-04-24T12:06:05;5.80;;;1.38;;
73980;SDS011;62348;51.412;5.436;2023-04-24T12:08:32;4.47;;;1.13;;
73980;SDS011;62348;51.412;5.436;2023-04-24T12:10:59;2.90;;;1.17;;
73980;SDS011;62348;51.412;5.436;2023-04-24T12:13:25;7.25;;;1.52;;
73980;SDS011;62348;51.412;5.436;2023-04-24T12:15:51;1.48;;;0.75;;
73980;SDS011;62348;51.412;5.436;2023-04-24T12:18:16;2.10;;;1.08;;
73980;SDS011;62348;51.412;5.436;2023-04-24T12:20:42;2.75;;;0.75;;
73980;SDS011;62348;51.412;5.436;2023-04-24T12:23:07;3.03;;;0.88;;
73980;SDS011;62348;51.412;5.436;2023-04-24T12:25:33;12.07;;;3.05;;
73980;SDS011;62348;51.412;5.436;2023-04-24T12:30:28;12.20;;;3.55;;
73980;SDS011;62348;51.412;5.436;2023-04-24T12:32:54;7.72;;;1.70;;
73980;SDS011;62348;51.412;5.436;2023-04-24T12:35:23;2.50;;;0.90;;
73980;SDS011;62348;51.412;5.436;2023-04-24T12:37:49;3.58;;;1.30;;
73980;SDS011;62348;51.412;5.436;2023-04-24T12:40:15;4.95;;;1.20;;
73980;SDS011;62348;51.412;5.436;2023-04-24T12:42:46;5.22;;;1.70;;
73980;SDS011;62348;51.412;5.436;2023-04-24T12:45:13;3.20;;;0.82;;
73980;SDS011;62348;51.412;5.436;2023-04-24T12:47:40;5.78;;;1.30;;
73980;SDS011;62348;51.412;5.436;2023-04-24T12:50:13;3.45;;;0.95;;
73980;SDS011;62348;51.412;5.436;2023-04-24T12:52:40;5.50;;;1.50;;
73980;SDS011;62348;51.412;5.436;2023-04-24T12:55:06;3.22;;;1.00;;
73980;SDS011;62348;51.412;5.436;2023-04-24T12:57:33;5.70;;;1.17;;
73980;SDS011;62348;51.412;5.436;2023-04-24T12:59:59;3.80;;;1.10;;
73980;SDS011;62348;51.412;5.436;2023-04-24T13:02:26;2.55;;;1.00;;
73980;SDS011;62348;51.412;5.436;2023-04-24T13:04:53;2.65;;;1.20;;
73980;SDS011;62348;51.412;5.436;2023-04-24T13:07:19;3.92;;;1.10;;
73980;SDS011;62348;51.412;5.436;2023-04-24T13:09:45;5.28;;;1.60;;
73980;SDS011;62348;51.412;5.436;2023-04-24T13:12:12;5.15;;;1.80;;
73980;SDS011;62348;51.412;5.436;2023-04-24T13:14:38;4.50;;;2.05;;
73980;SDS011;62348;51.412;5.436;2023-04-24T13:17:03;6.13;;;1.45;;
73980;SDS011;62348;51.412;5.436;2023-04-24T13:19:29;3.90;;;2.00;;
73980;SDS011;62348;51.412;5.436;2023-04-24T13:22:01;9.10;;;2.03;;
73980;SDS011;62348;51.412;5.436;2023-04-24T13:24:26;4.97;;;1.90;;
73980;SDS011;62348;51.412;5.436;2023-04-24T13:26:52;5.93;;;1.95;;
73980;SDS011;62348;51.412;5.436;2023-04-24T13:29:18;5.82;;;1.60;;
73980;SDS011;62348;51.412;5.436;2023-04-24T13:31:45;5.28;;;1.92;;
73980;SDS011;62348;51.412;5.436;2023-04-24T13:34:11;8.88;;;1.88;;
73980;SDS011;62348;51.412;5.436;2023-04-24T13:36:37;7.18;;;2.15;;
73980;SDS011;62348;51.412;5.436;2023-04-24T13:39:03;4.00;;;1.73;;
73980;SDS011;62348;51.412;5.436;2023-04-24T13:41:30;5.57;;;2.13;;
73980;SDS011;62348;51.412;5.436;2023-04-24T13:43:58;6.28;;;2.15;;
73980;SDS011;62348;51.412;5.436;2023-04-24T13:46:23;6.75;;;1.90;;
73980;SDS011;62348;51.412;5.436;2023-04-24T13:48:49;3.17;;;1.30;;
73980;SDS011;62348;51.412;5.436;2023-04-24T13:51:14;4.85;;;1.50;;
73980;SDS011;62348;51.412;5.436;2023-04-24T13:53:40;3.75;;;1.35;;
73980;SDS011;62348;51.412;5.436;2023-04-24T13:56:05;3.83;;;1.40;;
73980;SDS011;62348;51.412;5.436;2023-04-24T13:58:31;3.42;;;1.50;;
73980;SDS011;62348;51.412;5.436;2023-04-24T14:00:57;4.05;;;1.50;;
73980;SDS011;62348;51.412;5.436;2023-04-24T14:03:23;3.10;;;1.92;;
73980;SDS011;62348;51.412;5.436;2023-04-24T14:05:48;3.47;;;1.50;;
73980;SDS011;62348;51.412;5.436;2023-04-24T14:08:13;6.07;;;1.50;;
73980;SDS011;62348;51.412;5.436;2023-04-24T14:10:39;5.80;;;2.05;;
73980;SDS011;62348;51.412;5.436;2023-04-24T14:13:04;5.07;;;1.95;;
73980;SDS011;62348;51.412;5.436;2023-04-24T14:15:30;4.45;;;1.50;;
73980;SDS011;62348;51.412;5.436;2023-04-24T14:17:56;12.32;;;1.90;;
73980;SDS011;62348;51.412;5.436;2023-04-24T14:20:21;4.95;;;1.73;;
73980;SDS011;62348;51.412;5.436;2023-04-24T14:22:47;4.63;;;1.77;;
73980;SDS011;62348;51.412;5.436;2023-04-24T14:25:12;7.00;;;2.03;;
73980;SDS011;62348;51.412;5.436;2023-04-24T14:27:38;5.43;;;2.10;;
73980;SDS011;62348;51.412;5.436;2023-04-24T14:30:05;5.43;;;1.95;;
73980;SDS011;62348;51.412;5.436;2023-04-24T14:32:31;7.25;;;2.10;;
73980;SDS011;62348;51.412;5.436;2023-04-24T14:34:56;6.72;;;1.60;;
73980;SDS011;62348;51.412;5.436;2023-04-24T14:37:22;6.65;;;2.30;;
73980;SDS011;62348;51.412;5.436;2023-04-24T14:39:47;5.35;;;1.95;;
73980;SDS011;62348;51.412;5.436;2023-04-24T14:42:12;3.03;;;1.48;;
73980;SDS011;62348;51.412;5.436;2023-04-24T14:44:38;7.68;;;1.83;;
73980;SDS011;62348;51.412;5.436;2023-04-24T14:47:04;4.50;;;1.58;;
73980;SDS011;62348;51.412;5.436;2023-04-24T14:49:29;3.13;;;1.27;;
73980;SDS011;62348;51.412;5.436;2023-04-24T14:51:55;5.95;;;1.65;;